createdAt,value
2023-03-24T00:03:03.202Z,9.55
2023-03-24T00:06:06.898Z,10.33
2023-03-24T00:09:10.996Z,10.77
2023-03-24T00:12:15.173Z,10.57
2023-03-24T00:15:19.187Z,11.40
2023-03-24T00:18:23.207Z,11.44
2023-03-24T00:21:27.506Z,11.19
2023-03-24T00:24:35.803Z,11.22
2023-03-24T00:28:02.662Z,11.93
2023-03-24T00:31:06.797Z,12.09
2023-03-24T00:34:10.879Z,11.79
2023-03-24T00:37:15.806Z,10.89
2023-03-24T00:40:19.766Z,11.70
2023-03-24T00:43:23.957Z,11.76
2023-03-24T00:46:28.296Z,11.63
2023-03-24T00:49:32.334Z,11.69
2023-03-24T00:52:36.532Z,11.37
2023-03-24T00:55:40.360Z,11.65
2023-03-24T00:58:44.231Z,11.40
2023-03-24T01:01:49.700Z,11.19
2023-03-24T01:04:55.433Z,11.21
2023-03-24T01:08:00.973Z,11.96
2023-03-24T01:11:04.968Z,11.44
2023-03-24T01:14:09.256Z,11.46
2023-03-24T01:17:15.222Z,11.01
2023-03-24T01:20:23.652Z,11.27
2023-03-24T01:23:32.103Z,11.51
2023-03-24T01:26:37.868Z,11.48
2023-03-24T01:30:04.542Z,11.50
2023-03-24T01:33:06.993Z,11.60
2023-03-24T01:36:11.241Z,11.83
2023-03-24T01:39:15.186Z,11.11
2023-03-24T01:42:19.372Z,11.57
2023-03-24T01:45:23.303Z,11.16
2023-03-24T01:48:27.376Z,11.70
2023-03-24T01:52:18.401Z,10.98
2023-03-24T01:54:56.044Z,11.45
2023-03-24T01:58:01.356Z,11.52
2023-03-24T02:01:05.429Z,11.25
2023-03-24T02:04:10.537Z,10.91
2023-03-24T02:07:14.673Z,11.23
2023-03-24T02:10:18.795Z,11.13
2023-03-24T02:13:24.286Z,11.07
2023-03-24T02:16:28.667Z,10.69
2023-03-24T02:19:32.404Z,10.74
2023-03-24T02:22:41.005Z,10.37
2023-03-24T02:25:45.259Z,10.48
2023-03-24T02:28:49.987Z,10.16
2023-03-24T02:31:54.426Z,10.24
2023-03-24T02:35:02.703Z,10.54
2023-03-24T02:38:11.142Z,10.74
2023-03-24T02:41:19.127Z,11.19
2023-03-24T02:44:49.023Z,11.03
2023-03-24T02:47:51.488Z,10.80
2023-03-24T02:51:00.483Z,10.70
2023-03-24T02:54:06.088Z,10.67
2023-03-24T02:57:10.372Z,10.50
2023-03-24T03:00:14.707Z,10.31
2023-03-24T03:03:18.788Z,10.28
2023-03-24T03:06:24.511Z,10.61
2023-03-24T03:09:31.971Z,10.20
2023-03-24T03:12:48.635Z,10.17
2023-03-24T03:15:59.706Z,10.43
2023-03-24T03:19:03.746Z,10.69
2023-03-24T03:22:21.959Z,10.61
2023-03-24T03:25:30.359Z,10.72
2023-03-24T03:28:34.596Z,10.54
2023-03-24T03:31:51.202Z,11.09
2023-03-24T03:35:03.375Z,11.39
2023-03-24T03:38:14.542Z,10.95
2023-03-24T03:41:19.553Z,10.98
2023-03-24T03:44:34.214Z,11.40
2023-03-24T03:47:38.234Z,11.14
2023-03-24T03:50:43.726Z,11.21
2023-03-24T03:53:49.171Z,11.21
2023-03-24T03:56:53.509Z,11.41
2023-03-24T03:59:58.945Z,11.59
2023-03-24T04:03:04.335Z,11.44
2023-03-24T04:06:10.382Z,11.30
2023-03-24T04:09:14.364Z,11.45
2023-03-24T04:12:17.884Z,11.59
2023-03-24T04:15:24.217Z,11.84
2023-03-24T04:18:28.368Z,11.70
2023-03-24T04:21:32.581Z,11.79
2023-03-24T04:24:41.299Z,11.37
2023-03-24T04:27:49.714Z,11.91
2023-03-24T04:30:57.050Z,12.09
2023-03-24T04:34:05.216Z,11.40
2023-03-24T04:37:09.578Z,11.75
2023-03-24T04:40:13.436Z,11.52
2023-03-24T04:43:17.625Z,11.73
2023-03-24T04:46:22.901Z,11.27
2023-03-24T04:49:34.880Z,11.58
2023-03-24T04:52:40.207Z,12.11
2023-03-24T04:55:50.169Z,11.63
2023-03-24T04:58:54.390Z,11.21
2023-03-24T05:01:58.046Z,11.47
2023-03-24T05:05:02.352Z,11.50
2023-03-24T05:08:16.915Z,11.33
2023-03-24T05:11:30.583Z,11.61
2023-03-24T05:14:55.251Z,12.20
2023-03-24T05:18:21.636Z,12.06
2023-03-24T05:21:23.983Z,12.46
2023-03-24T05:24:27.981Z,12.03
2023-03-24T05:27:31.805Z,12.21
2023-03-24T05:30:35.873Z,12.40
2023-03-24T05:33:44.174Z,12.42
2023-03-24T05:36:49.838Z,12.82
2023-03-24T05:39:55.957Z,12.38
2023-03-24T05:42:59.834Z,12.87
2023-03-24T05:46:04.156Z,13.33
2023-03-24T05:49:08.290Z,12.86
2023-03-24T05:52:12.322Z,13.14
2023-03-24T05:55:16.570Z,13.49
2023-03-24T05:58:20.504Z,13.22
2023-03-24T06:01:25.609Z,13.33
2023-03-24T06:04:31.089Z,13.70
2023-03-24T06:07:36.603Z,13.20
2023-03-24T06:10:42.030Z,13.54
2023-03-24T06:13:46.232Z,12.59
2023-03-24T06:16:50.233Z,12.78
2023-03-24T06:19:54.305Z,12.08
2023-03-24T06:22:59.539Z,11.22
2023-03-24T06:26:03.711Z,11.06
2023-03-24T06:29:09.309Z,11.69
2023-03-24T06:35:42.351Z,10.45
2023-03-24T06:38:47.821Z,10.10
2023-03-24T06:45:10.006Z,9.81
2023-03-24T06:48:21.424Z,9.92
2023-03-24T08:05:08.667Z,7.94
2023-03-24T08:08:14.368Z,7.70
2023-03-24T08:55:26.087Z,6.32
2023-03-24T17:03:43.831Z,1.41
2023-03-24T17:06:47.370Z,1.14
2023-03-24T17:09:51.314Z,1.12
2023-03-24T17:13:05.765Z,1.13
2023-03-24T17:16:09.943Z,1.21
2023-03-24T17:19:14.245Z,1.40
2023-03-24T17:22:18.247Z,1.19
2023-03-24T17:25:23.600Z,1.85
2023-03-24T17:28:27.863Z,0.96
2023-03-24T17:31:33.278Z,0.88
2023-03-24T17:34:38.054Z,0.90
2023-03-24T17:37:42.013Z,1.12
2023-03-24T17:40:46.519Z,1.11
2023-03-24T17:43:50.947Z,0.92
2023-03-24T17:46:56.514Z,0.90
2023-03-24T17:50:01.062Z,1.12
2023-03-24T17:53:04.880Z,1.72
2023-03-24T17:56:08.782Z,1.11
2023-03-24T17:59:13.267Z,1.30
2023-03-24T18:02:22.070Z,1.25
2023-03-24T18:05:26.197Z,1.42
2023-03-24T18:08:30.345Z,1.50
2023-03-24T18:11:36.087Z,1.68
2023-03-24T18:14:40.318Z,1.89
2023-03-24T18:17:44.259Z,2.07
2023-03-24T18:20:49.619Z,2.30
2023-03-24T18:23:55.021Z,2.17
2023-03-24T18:26:59.443Z,2.04
2023-03-24T18:30:04.673Z,1.92
2023-03-24T18:33:08.819Z,2.26
2023-03-24T18:36:16.044Z,2.14
2023-03-24T18:39:20.077Z,1.78
2023-03-24T18:42:24.453Z,2.09
2023-03-24T18:45:28.243Z,2.33
2023-03-24T18:49:02.533Z,2.58
2023-03-24T18:51:56.917Z,2.55
2023-03-24T18:55:00.771Z,2.55
2023-03-24T18:58:06.359Z,2.06
2023-03-24T19:01:12.222Z,2.21
2023-03-24T19:04:17.779Z,1.93
2023-03-24T19:07:21.805Z,1.89
2023-03-24T19:10:25.905Z,2.31
2023-03-24T19:13:29.930Z,2.51
2023-03-24T19:16:35.584Z,2.63
2023-03-24T19:19:39.832Z,3.00
2023-03-24T19:23:08.319Z,2.49
2023-03-24T19:26:09.675Z,2.17
2023-03-24T19:29:18.343Z,1.96
2023-03-24T19:32:27.396Z,1.80
2023-03-24T19:35:34.791Z,1.54
2023-03-24T19:38:38.774Z,1.64
2023-03-24T19:41:43.004Z,1.47
2023-03-24T19:44:47.127Z,1.43
2023-03-24T19:47:51.098Z,1.74
2023-03-24T19:50:56.752Z,1.66
2023-03-24T19:54:02.360Z,1.73
2023-03-24T19:57:06.440Z,2.03
2023-03-24T20:00:10.757Z,2.50
2023-03-24T20:03:15.003Z,1.92
2023-03-24T20:09:44.516Z,1.83
2023-03-24T20:12:49.385Z,1.47
2023-03-24T20:15:54.370Z,1.15
2023-03-24T20:18:58.858Z,1.23
2023-03-24T20:22:07.413Z,1.34
2023-03-24T20:25:22.142Z,1.31
2023-03-24T20:28:26.680Z,1.32
2023-03-24T20:31:35.035Z,1.39
2023-03-24T20:34:40.674Z,1.67
2023-03-24T20:37:44.882Z,1.42
2023-03-24T20:40:48.784Z,1.77
2023-03-24T20:43:52.495Z,1.45
2023-03-24T20:46:56.568Z,1.77
2023-03-24T20:50:00.738Z,2.06
2023-03-24T20:53:04.802Z,1.55
2023-03-24T20:56:11.784Z,1.77
2023-03-24T20:59:15.604Z,1.66
2023-03-24T21:02:19.958Z,1.79
2023-03-24T21:05:24.009Z,1.63
2023-03-24T21:08:28.241Z,1.95
2023-03-24T21:11:33.272Z,2.51
2023-03-24T21:14:37.385Z,1.89
2023-03-24T21:17:41.893Z,1.79
2023-03-24T21:20:49.230Z,1.86
2023-03-24T21:23:58.569Z,2.32
2023-03-24T21:27:02.825Z,2.10
2023-03-24T21:30:14.861Z,2.03
2023-03-24T21:33:19.008Z,1.82
2023-03-24T21:36:23.295Z,1.99
2023-03-24T21:39:29.385Z,1.81
2023-03-24T21:42:33.447Z,1.99
2023-03-24T21:45:37.432Z,2.87
2023-03-24T21:48:41.454Z,2.75
2023-03-24T21:51:45.201Z,2.14
2023-03-24T21:54:49.450Z,2.16
2023-03-24T21:57:53.241Z,1.79
2023-03-24T22:00:57.435Z,1.86
2023-03-24T22:04:01.268Z,1.71
2023-03-24T22:07:05.388Z,1.77
2023-03-24T22:10:09.590Z,2.05
2023-03-24T22:13:13.596Z,1.79
2023-03-24T22:16:17.289Z,2.87
2023-03-24T22:19:22.118Z,2.08
2023-03-24T22:22:26.457Z,2.08
2023-03-24T22:25:30.362Z,1.96
2023-03-24T22:28:34.489Z,1.89
2023-03-24T22:31:38.465Z,1.76
2023-03-24T22:34:43.977Z,1.89
2023-03-24T22:37:48.236Z,1.88
2023-03-24T22:40:52.141Z,1.91
2023-03-24T22:44:10.338Z,2.00
2023-03-24T22:47:16.054Z,1.97
2023-03-24T22:50:20.386Z,1.96
2023-03-24T22:53:24.293Z,1.89
2023-03-24T22:56:29.318Z,1.81
2023-03-24T22:59:35.372Z,1.90
2023-03-24T23:02:39.581Z,1.95
2023-03-24T23:05:43.879Z,2.08
2023-03-24T23:08:47.941Z,1.99
2023-03-24T23:11:51.941Z,2.21
2023-03-24T23:14:55.743Z,1.72
2023-03-24T23:18:00.577Z,1.93
2023-03-24T23:21:09.421Z,1.57
2023-03-24T23:24:13.387Z,1.36
2023-03-24T23:27:17.804Z,1.38
2023-03-24T23:30:23.343Z,1.26
2023-03-24T23:33:27.650Z,1.19
2023-03-24T23:36:32.648Z,1.08
2023-03-24T23:39:37.023Z,0.76
2023-03-24T23:42:41.113Z,0.81
2023-03-24T23:45:46.809Z,0.84
2023-03-24T23:48:50.825Z,0.63
2023-03-24T23:51:54.740Z,0.66
2023-03-24T23:54:58.710Z,0.83
2023-03-24T23:58:02.587Z,0.65
